Time;durP1;ratioP1;P1;durP2;ratioP2;P2;SDS_P1;SDS_P2;PMS_P1;PMS_P2;Temp;Humidity;BMP_temperature;BMP_pressure;BME280_temperature;BME280_humidity;BME280_pressure;Samples;Min_cycle;Max_cycle;Signal;HPM_P1;HPM_P2
2024/04/06 00:01:46;;;;;;;;;;;15.90;1.00;;;;;;5046979;28;19915;-85
2024/04/06 00:04:12;;;;;;;;;;;15.90;1.00;;;;;;5063753;28;19908;-84
2024/04/06 00:06:38;;;;;;;;;;;15.90;1.00;;;;;;5059276;28;19920;-84
2024/04/06 00:09:03;;;;;;;;;;;15.90;1.00;;;;;;5059181;28;19913;-84
2024/04/06 00:11:29;;;;;;;;;;;15.90;1.00;;;;;;5058908;28;19923;-85
2024/04/06 00:13:54;;;;;;;;;;;15.90;1.00;;;;;;5059208;28;19938;-85
2024/04/06 00:16:20;;;;;;;;;;;15.90;1.00;;;;;;5059233;28;19992;-84
2024/04/06 00:18:45;;;;;;;;;;;15.90;1.00;;;;;;5058535;28;19913;-82
2024/04/06 00:21:11;;;;;;;;;;;15.90;1.00;;;;;;5046085;28;19916;-85
2024/04/06 00:23:36;;;;;;;;;;;15.90;1.00;;;;;;5065354;28;19919;-84
2024/04/06 00:26:02;;;;;;;;;;;15.80;1.00;;;;;;5065777;28;19949;-85
2024/04/06 00:28:27;;;;;;;;;;;15.80;1.00;;;;;;5065072;28;19955;-85
2024/04/06 00:30:54;;;;;;;;;;;15.80;1.00;;;;;;5066025;28;19916;-85
2024/04/06 00:33:20;;;;;;;;;;;15.80;1.00;;;;;;5066926;28;19909;-85
2024/04/06 00:35:45;;;;;;;;;;;15.80;1.00;;;;;;5059926;28;19917;-84
2024/04/06 00:38:11;;;;;;;;;;;15.80;1.00;;;;;;5058667;28;20192;-84
2024/04/06 00:40:36;;;;;;;;;;;15.70;1.00;;;;;;5058737;28;20263;-85
2024/04/06 00:43:02;;;;;;;;;;;15.70;1.00;;;;;;5041445;28;19931;-82
2024/04/06 00:45:27;;;;;;;;;;;15.70;1.00;;;;;;5058601;28;19909;-83
2024/04/06 00:47:53;;;;;;;;;;;15.60;1.00;;;;;;5058378;28;19908;-83
2024/04/06 00:50:19;;;;;;;;;;;15.60;1.00;;;;;;5040424;28;19909;-84
2024/04/06 00:52:45;;;;;;;;;;;15.60;1.00;;;;;;5041103;28;20379;-85
2024/04/06 00:55:10;;;;;;;;;;;15.50;1.00;;;;;;5058869;28;19909;-85
2024/04/06 00:57:36;;;;;;;;;;;15.50;1.00;;;;;;5040440;28;19956;-84
2024/04/06 01:00:02;;;;;;;;;;;15.40;1.00;;;;;;5040608;28;19992;-83
2024/04/06 01:02:28;;;;;;;;;;;15.40;1.00;;;;;;5058206;28;20393;-84
2024/04/06 01:04:53;;;;;;;;;;;15.40;1.00;;;;;;5057865;28;19913;-83
2024/04/06 01:07:19;;;;;;;;;;;15.30;1.00;;;;;;5039886;28;19913;-85
2024/04/06 01:09:45;;;;;;;;;;;15.30;1.00;;;;;;5058636;28;20345;-84
2024/04/06 01:12:10;;;;;;;;;;;15.20;1.00;;;;;;5058090;28;19976;-84
2024/04/06 01:14:36;;;;;;;;;;;15.20;1.00;;;;;;5058115;28;19909;-84
2024/04/06 01:17:02;;;;;;;;;;;15.20;1.00;;;;;;5058400;28;19940;-83
2024/04/06 01:19:27;;;;;;;;;;;15.20;1.00;;;;;;5058166;28;19916;-84
2024/04/06 01:21:53;;;;;;;;;;;15.10;1.00;;;;;;5057935;28;19960;-82
2024/04/06 01:24:31;;;;;;;;;;;15.10;1.00;;;;;;5058286;28;19915;-85
2024/04/06 01:26:57;;;;;;;;;;;15.10;1.00;;;;;;5058134;28;19954;-82
2024/04/06 01:29:24;;;;;;;;;;;15.10;1.00;;;;;;5039809;28;20413;-85
2024/04/06 01:31:53;;;;;;;;;;;15.10;1.00;;;;;;5057605;28;19938;-85
2024/04/06 01:34:19;;;;;;;;;;;15.00;1.00;;;;;;5058290;28;19920;-85
2024/04/06 01:36:44;;;;;;;;;;;15.00;1.00;;;;;;5057897;28;19909;-84
2024/04/06 01:39:11;;;;;;;;;;;15.00;1.00;;;;;;5039556;28;19913;-85
2024/04/06 01:41:37;;;;;;;;;;;15.00;1.00;;;;;;5057752;28;20286;-82
2024/04/06 01:44:02;;;;;;;;;;;14.90;1.00;;;;;;5057917;28;19995;-84
2024/04/06 01:46:28;;;;;;;;;;;14.90;1.00;;;;;;5039672;28;19956;-85
2024/04/06 01:48:54;;;;;;;;;;;14.80;1.00;;;;;;5040314;28;19909;-84
2024/04/06 01:51:20;;;;;;;;;;;14.80;1.00;;;;;;5058047;28;19916;-82
2024/04/06 01:53:45;;;;;;;;;;;14.70;1.00;;;;;;5062193;28;20027;-85
2024/04/06 01:56:11;;;;;;;;;;;14.60;1.00;;;;;;5062979;28;19917;-85
2024/04/06 01:58:37;;;;;;;;;;;14.60;1.00;;;;;;5063943;28;19916;-84
2024/04/06 02:01:02;;;;;;;;;;;14.50;1.00;;;;;;5064063;28;20389;-85
2024/04/06 02:03:28;;;;;;;;;;;14.50;1.00;;;;;;5064006;28;19909;-85
2024/04/06 02:05:56;;;;;;;;;;;14.40;1.00;;;;;;5063368;28;19963;-85
2024/04/06 02:08:21;;;;;;;;;;;14.30;1.00;;;;;;5063456;28;19916;-84
2024/04/06 02:10:46;;;;;;;;;;;14.20;1.00;;;;;;5062955;28;19909;-85
2024/04/06 02:13:12;;;;;;;;;;;14.20;1.00;;;;;;5063150;28;20298;-84
2024/04/06 02:15:39;;;;;;;;;;;14.10;1.00;;;;;;5063522;28;19909;-85
2024/04/06 02:18:04;;;;;;;;;;;14.10;1.00;;;;;;5062831;28;19952;-86
2024/04/06 02:20:30;;;;;;;;;;;14.00;1.00;;;;;;5063395;28;19919;-85
2024/04/06 02:22:55;;;;;;;;;;;14.00;1.00;;;;;;5064693;28;20408;-84
2024/04/06 02:25:21;;;;;;;;;;;13.90;2.60;;;;;;5063447;28;19916;-84
2024/04/06 02:27:47;;;;;;;;;;;13.90;6.80;;;;;;5062635;28;19908;-83
2024/04/06 02:30:12;;;;;;;;;;;13.90;13.80;;;;;;5044846;28;19909;-85
2024/04/06 02:32:38;;;;;;;;;;;13.90;19.10;;;;;;5062984;28;19979;-85
2024/04/06 02:35:04;;;;;;;;;;;13.90;21.80;;;;;;5063910;28;19916;-84
2024/04/06 02:37:30;;;;;;;;;;;13.90;22.80;;;;;;5063484;28;19976;-86
2024/04/06 02:39:56;;;;;;;;;;;13.90;22.80;;;;;;5063685;28;19916;-86
2024/04/06 02:42:21;;;;;;;;;;;13.80;22.30;;;;;;5062839;28;19909;-85
2024/04/06 02:44:47;;;;;;;;;;;13.80;21.80;;;;;;5062663;28;20501;-84
2024/04/06 02:47:12;;;;;;;;;;;13.70;22.60;;;;;;5045461;28;19920;-86
2024/04/06 02:49:38;;;;;;;;;;;13.70;24.90;;;;;;5044766;28;19908;-84
2024/04/06 02:52:03;;;;;;;;;;;13.60;27.00;;;;;;5063172;28;19916;-85
2024/04/06 02:54:29;;;;;;;;;;;13.60;34.20;;;;;;5063320;28;19916;-86
2024/04/06 02:56:54;;;;;;;;;;;13.60;41.40;;;;;;5063563;28;19927;-85
2024/04/06 02:59:20;;;;;;;;;;;13.50;48.10;;;;;;5044860;28;19919;-85
2024/04/06 03:01:45;;;;;;;;;;;13.50;53.00;;;;;;5063059;28;19909;-85
2024/04/06 03:04:10;;;;;;;;;;;13.50;56.20;;;;;;5044775;28;19915;-85
2024/04/06 03:06:36;;;;;;;;;;;13.50;58.20;;;;;;5045410;28;19940;-84
2024/04/06 03:09:03;;;;;;;;;;;13.40;60.40;;;;;;5045358;28;19909;-86
2024/04/06 03:11:29;;;;;;;;;;;13.40;62.20;;;;;;5063200;28;19909;-85
2024/04/06 03:13:54;;;;;;;;;;;13.40;64.50;;;;;;5063198;28;19968;-84
2024/04/06 03:16:20;;;;;;;;;;;13.40;67.60;;;;;;5064877;28;20409;-85
2024/04/06 03:18:46;;;;;;;;;;;13.40;70.30;;;;;;5057656;28;19948;-85
2024/04/06 03:21:12;;;;;;;;;;;13.40;73.70;;;;;;5038457;28;19916;-83
2024/04/06 03:23:37;;;;;;;;;;;13.40;75.60;;;;;;5038451;28;20115;-84
2024/04/06 03:26:03;;;;;;;;;;;13.50;75.30;;;;;;5055625;28;19962;-83
2024/04/06 03:28:29;;;;;;;;;;;13.50;70.80;;;;;;5038494;28;19909;-85
2024/04/06 03:30:54;;;;;;;;;;;13.50;66.20;;;;;;5056242;28;19909;-82
2024/04/06 03:33:20;;;;;;;;;;;13.50;60.90;;;;;;5056241;28;19963;-83
2024/04/06 03:35:45;;;;;;;;;;;13.50;56.80;;;;;;5056505;28;19931;-84
2024/04/06 03:38:11;;;;;;;;;;;13.50;53.20;;;;;;5057202;28;19919;-84
2024/04/06 03:40:37;;;;;;;;;;;13.50;49.60;;;;;;5041980;28;20264;-83
2024/04/06 03:43:03;;;;;;;;;;;13.50;46.80;;;;;;5059689;28;19931;-82
2024/04/06 03:45:28;;;;;;;;;;;13.50;43.60;;;;;;5060086;28;19909;-84
2024/04/06 03:47:54;;;;;;;;;;;13.50;41.50;;;;;;5059866;28;19912;-84
2024/04/06 03:50:20;;;;;;;;;;;13.50;39.10;;;;;;5041815;28;19916;-84
2024/04/06 03:52:46;;;;;;;;;;;13.40;37.70;;;;;;5041405;28;19912;-85
2024/04/06 03:55:11;;;;;;;;;;;13.40;35.30;;;;;;5060776;28;20054;-83
2024/04/06 03:57:37;;;;;;;;;;;13.40;36.90;;;;;;5059032;28;19971;-84
2024/04/06 04:00:06;;;;;;;;;;;13.30;37.90;;;;;;5041663;28;19916;-84
2024/04/06 04:02:31;;;;;;;;;;;13.30;41.60;;;;;;5059631;28;19909;-82
2024/04/06 04:04:57;;;;;;;;;;;13.30;43.40;;;;;;5060273;28;20008;-84
2024/04/06 04:07:22;;;;;;;;;;;13.30;45.70;;;;;;5059006;28;20290;-84
2024/04/06 04:09:47;;;;;;;;;;;13.30;45.90;;;;;;5059667;28;19909;-84
2024/04/06 04:12:13;;;;;;;;;;;13.30;43.70;;;;;;5059644;28;19947;-84
2024/04/06 04:14:39;;;;;;;;;;;13.20;41.10;;;;;;5041817;28;19913;-85
2024/04/06 04:17:04;;;;;;;;;;;13.20;39.90;;;;;;5060187;28;19916;-84
2024/04/06 04:19:30;;;;;;;;;;;13.20;39.30;;;;;;5042980;28;19913;-83
2024/04/06 04:21:55;;;;;;;;;;;13.20;37.30;;;;;;5060009;28;19991;-84
2024/04/06 04:24:21;;;;;;;;;;;13.10;37.10;;;;;;5060357;28;19916;-84
2024/04/06 04:26:47;;;;;;;;;;;13.10;38.10;;;;;;5041900;28;20283;-84
2024/04/06 04:29:13;;;;;;;;;;;13.10;38.80;;;;;;5059125;28;19917;-85
2024/04/06 04:31:38;;;;;;;;;;;13.00;39.90;;;;;;5060381;28;20397;-83
2024/04/06 04:34:04;;;;;;;;;;;13.00;41.50;;;;;;5041785;28;19913;-85
2024/04/06 04:36:29;;;;;;;;;;;13.00;42.00;;;;;;5060124;28;19908;-84
2024/04/06 04:38:55;;;;;;;;;;;12.90;43.30;;;;;;5041800;28;19913;-84
2024/04/06 04:41:20;;;;;;;;;;;12.90;44.30;;;;;;5041964;28;19962;-86
2024/04/06 04:43:45;;;;;;;;;;;12.90;44.40;;;;;;5065208;28;19909;-84
2024/04/06 04:46:11;;;;;;;;;;;12.90;43.60;;;;;;5065701;28;19931;-85
2024/04/06 04:48:56;;;;;;;;;;;12.90;41.50;;;;;;5047662;28;19924;-85
2024/04/06 04:51:22;;;;;;;;;;;12.90;39.60;;;;;;5064320;28;19916;-84
2024/04/06 04:53:49;;;;;;;;;;;13.00;39.50;;;;;;5064899;28;19909;-85
2024/04/06 04:56:14;;;;;;;;;;;13.00;37.80;;;;;;5047264;28;19929;-84
2024/04/06 04:58:40;;;;;;;;;;;13.00;36.30;;;;;;5045977;28;20384;-86
2024/04/06 05:01:05;;;;;;;;;;;13.00;33.90;;;;;;5064044;28;19912;-83
2024/04/06 05:03:30;;;;;;;;;;;13.00;30.30;;;;;;5063598;28;20322;-85
2024/04/06 05:05:56;;;;;;;;;;;13.10;27.00;;;;;;5062929;28;19963;-86
2024/04/06 05:08:22;;;;;;;;;;;13.10;23.90;;;;;;5045771;28;19916;-85
2024/04/06 05:10:47;;;;;;;;;;;13.10;20.90;;;;;;5064585;28;19908;-85
2024/04/06 05:13:14;;;;;;;;;;;13.20;17.30;;;;;;5065013;28;19908;-85
2024/04/06 05:15:41;;;;;;;;;;;13.20;12.50;;;;;;5064110;28;20298;-85
2024/04/06 05:18:06;;;;;;;;;;;13.30;6.90;;;;;;5063959;28;19913;-85
2024/04/06 05:20:32;;;;;;;;;;;13.40;1.00;;;;;;5064368;28;19909;-85
2024/04/06 05:22:57;;;;;;;;;;;13.50;1.00;;;;;;5064436;28;19920;-84
2024/04/06 05:25:23;;;;;;;;;;;13.60;1.00;;;;;;5064217;28;20329;-85
2024/04/06 05:27:48;;;;;;;;;;;13.70;1.00;;;;;;5046407;28;19916;-84
2024/04/06 05:30:14;;;;;;;;;;;13.80;1.00;;;;;;5063359;28;19934;-84
2024/04/06 05:32:40;;;;;;;;;;;13.90;1.00;;;;;;5044938;28;20387;-86
2024/04/06 05:35:06;;;;;;;;;;;14.10;1.00;;;;;;5063585;28;19959;-84
2024/04/06 05:37:31;;;;;;;;;;;14.20;1.00;;;;;;5062819;28;20337;-85
2024/04/06 05:39:57;;;;;;;;;;;14.30;1.00;;;;;;5062589;28;19909;-85
2024/04/06 05:42:22;;;;;;;;;;;14.40;1.00;;;;;;5062193;28;19909;-85
2024/04/06 05:44:48;;;;;;;;;;;14.60;1.00;;;;;;5061734;28;19908;-84
2024/04/06 05:47:13;;;;;;;;;;;14.90;1.00;;;;;;5043810;28;19912;-85
2024/04/06 05:49:39;;;;;;;;;;;15.30;1.00;;;;;;5060730;28;20011;-85
2024/04/06 05:52:04;;;;;;;;;;;16.30;99.90;;;;;;5059598;28;19913;-85
2024/04/06 05:54:30;;;;;;;;;;;17.50;1.00;;;;;;5040250;28;19909;-86
2024/04/06 05:56:55;;;;;;;;;;;18.40;1.00;;;;;;5087290;22;20043;-84
2024/04/06 05:59:21;;;;;;;;;;;18.30;1.00;;;;;;5066716;28;19931;-83
2024/04/06 06:01:46;;;;;;;;;;;18.20;58.70;;;;;;5087962;28;19909;-85
2024/04/06 06:04:12;;;;;;;;;;;18.80;1.00;;;;;;5089446;28;20364;-84
2024/04/06 06:06:37;;;;;;;;;;;19.50;99.90;;;;;;5089361;28;19915;-84
2024/04/06 06:09:04;;;;;;;;;;;20.20;28.80;;;;;;5088263;28;19915;-86
2024/04/06 06:11:30;;;;;;;;;;;21.10;1.00;;;;;;5088182;28;19915;-85
2024/04/06 06:13:56;;;;;;;;;;;21.40;1.00;;;;;;5070902;28;20400;-84
2024/04/06 06:16:21;;;;;;;;;;;21.30;1.00;;;;;;5088076;28;19908;-85
2024/04/06 06:18:47;;;;;;;;;;;22.30;1.00;;;;;;5088203;28;19913;-84
2024/04/06 06:21:12;;;;;;;;;;;22.30;1.00;;;;;;5089743;28;19962;-81
2024/04/06 06:23:38;;;;;;;;;;;22.60;1.00;;;;;;5091071;28;20336;-83
2024/04/06 06:26:04;;;;;;;;;;;24.40;1.00;;;;;;5090765;28;19915;-83
2024/04/06 06:28:29;;;;;;;;;;;26.00;99.90;;;;;;5090280;28;19940;-83
2024/04/06 06:30:55;;;;;;;;;;;27.10;99.90;;;;;;5071802;28;19892;-83
2024/04/06 06:33:21;;;;;;;;;;;28.60;99.90;;;;;;5089318;28;19913;-84
2024/04/06 06:35:53;;;;;;;;;;;29.80;99.90;;;;;;5089184;28;19951;-84
2024/04/06 06:38:18;;;;;;;;;;;30.80;99.90;;;;;;5084471;28;19980;-85
2024/04/06 06:40:43;;;;;;;;;;;32.70;99.90;;;;;;5082206;28;19908;-84
2024/04/06 06:43:09;;;;;;;;;;;34.50;99.90;;;;;;5081483;28;20349;-84
2024/04/06 06:45:34;;;;;;;;;;;36.10;99.90;;;;;;5081500;28;19909;-85
2024/04/06 06:48:00;;;;;;;;;;;37.50;99.90;;;;;;5079850;28;19974;-84
2024/04/06 06:50:25;;;;;;;;;;;38.60;99.90;;;;;;5079106;28;19911;-84
2024/04/06 06:52:51;;;;;;;;;;;39.60;99.90;;;;;;5078412;28;20362;-84
2024/04/06 06:55:16;;;;;;;;;;;40.40;99.90;;;;;;5078259;28;19958;-84
2024/04/06 06:57:42;;;;;;;;;;;41.20;99.90;;;;;;5076995;28;20373;-84
2024/04/06 07:00:08;;;;;;;;;;;42.10;99.90;;;;;;5076401;28;19909;-84
2024/04/06 07:02:33;;;;;;;;;;;42.80;99.90;;;;;;5076202;28;19915;-84
2024/04/06 07:04:59;;;;;;;;;;;43.30;99.90;;;;;;5076470;28;19909;-84
2024/04/06 07:07:24;;;;;;;;;;;42.20;99.90;;;;;;5077007;28;19976;-85
2024/04/06 07:09:49;;;;;;;;;;;41.70;99.90;;;;;;5077728;28;19915;-83
2024/04/06 07:12:15;;;;;;;;;;;40.60;99.90;;;;;;5078821;28;19955;-84
2024/04/06 07:14:40;;;;;;;;;;;39.70;99.90;;;;;;5082320;28;19913;-84
2024/04/06 07:17:06;;;;;;;;;;;41.00;99.90;;;;;;5079772;28;19915;-86
2024/04/06 07:19:31;;;;;;;;;;;42.50;99.90;;;;;;5078842;28;19920;-83
2024/04/06 07:21:57;;;;;;;;;;;43.70;99.90;;;;;;5060684;28;20476;-84
2024/04/06 07:24:22;;;;;;;;;;;44.60;99.90;;;;;;5077934;28;19951;-86
2024/04/06 07:26:48;;;;;;;;;;;45.50;99.90;;;;;;5078096;28;20410;-84
2024/04/06 07:29:15;;;;;;;;;;;46.00;99.90;;;;;;5077846;28;20358;-85
2024/04/06 07:31:40;;;;;;;;;;;45.80;99.90;;;;;;5082079;28;19912;-83
2024/04/06 07:34:06;;;;;;;;;;;45.30;99.90;;;;;;5085932;28;19943;-84
2024/04/06 07:36:31;;;;;;;;;;;44.40;99.90;;;;;;5084581;28;19909;-85
2024/04/06 07:38:57;;;;;;;;;;;44.60;99.90;;;;;;5079737;28;19957;-84
2024/04/06 07:41:22;;;;;;;;;;;44.80;99.90;;;;;;5079592;28;19915;-84
2024/04/06 07:43:48;;;;;;;;;;;45.30;99.90;;;;;;5078585;28;20290;-85
2024/04/06 07:46:13;;;;;;;;;;;45.70;99.90;;;;;;5077783;28;19915;-84
2024/04/06 07:48:39;;;;;;;;;;;46.10;99.90;;;;;;5078285;28;19912;-85
2024/04/06 07:51:04;;;;;;;;;;;46.30;99.90;;;;;;5078449;28;20227;-85
2024/04/06 07:53:30;;;;;;;;;;;45.70;99.90;;;;;;5078966;28;19920;-84
2024/04/06 07:55:55;;;;;;;;;;;45.40;99.90;;;;;;5078560;28;20012;-84
2024/04/06 07:58:21;;;;;;;;;;;45.80;99.90;;;;;;5078653;28;19912;-84
2024/04/06 08:00:46;;;;;;;;;;;46.10;99.90;;;;;;5078621;28;19909;-85
2024/04/06 08:03:11;;;;;;;;;;;46.10;99.90;;;;;;5078871;28;19916;-83
2024/04/06 08:05:38;;;;;;;;;;;46.00;99.90;;;;;;5079546;28;20011;-85
2024/04/06 08:08:04;;;;;;;;;;;44.90;99.90;;;;;;5083747;28;20007;-84
2024/04/06 08:10:29;;;;;;;;;;;44.20;99.90;;;;;;5063375;28;19909;-85
2024/04/06 08:12:55;;;;;;;;;;;43.20;99.90;;;;;;5082920;28;20454;-84
2024/04/06 08:15:21;;;;;;;;;;;42.20;99.90;;;;;;5083033;28;20003;-83
2024/04/06 08:17:52;;;;;;;;;;;42.10;99.90;;;;;;5083149;28;19909;-85
2024/04/06 08:20:18;;;;;;;;;;;42.90;99.90;;;;;;5080508;28;20325;-85
2024/04/06 08:22:43;;;;;;;;;;;43.70;99.90;;;;;;5077626;28;19909;-84
2024/04/06 08:25:09;;;;;;;;;;;44.00;99.90;;;;;;5075887;28;20378;-84
2024/04/06 08:27:35;;;;;;;;;;;44.10;99.90;;;;;;5076873;28;19999;-84
2024/04/06 08:30:04;;;;;;;;;;;44.70;99.90;;;;;;5077394;28;19982;-84
2024/04/06 08:32:30;;;;;;;;;;;46.00;99.90;;;;;;5080329;28;19923;-85
2024/04/06 08:34:56;;;;;;;;;;;47.20;99.90;;;;;;5090488;28;19909;-85
2024/04/06 08:37:21;;;;;;;;;;;47.70;99.90;;;;;;5087224;28;19909;-84
2024/04/06 08:39:47;;;;;;;;;;;48.20;99.90;;;;;;5078840;28;19968;-85
2024/04/06 08:42:22;;;;;;;;;;;48.40;99.90;;;;;;5078886;28;19931;-85
2024/04/06 08:44:48;;;;;;;;;;;48.10;99.90;;;;;;5080060;28;19923;-84
2024/04/06 08:47:19;;;;;;;;;;;47.50;99.90;;;;;;5081149;28;19909;-84
2024/04/06 08:49:45;;;;;;;;;;;46.70;99.90;;;;;;5081704;28;19908;-84
2024/04/06 08:52:11;;;;;;;;;;;45.80;99.90;;;;;;5081699;28;19913;-82
2024/04/06 08:54:37;;;;;;;;;;;45.60;99.90;;;;;;5061336;28;20282;-84
2024/04/06 08:57:04;;;;;;;;;;;45.80;99.90;;;;;;5078625;28;19916;-84
2024/04/06 08:59:29;;;;;;;;;;;46.60;99.90;;;;;;5077221;28;19909;-83
2024/04/06 09:01:55;;;;;;;;;;;47.30;99.90;;;;;;5059211;28;19962;-85
2024/04/06 09:04:20;;;;;;;;;;;47.50;99.90;;;;;;5077608;28;19916;-85
2024/04/06 09:06:46;;;;;;;;;;;47.50;99.90;;;;;;5077435;28;19916;-84
2024/04/06 09:09:11;;;;;;;;;;;47.90;99.90;;;;;;5077096;28;19919;-84
2024/04/06 09:11:41;;;;;;;;;;;48.30;99.90;;;;;;5077381;28;19916;-84
2024/04/06 09:14:07;;;;;;;;;;;48.40;99.90;;;;;;5062081;28;19908;-85
2024/04/06 09:16:35;;;;;;;;;;;48.30;99.90;;;;;;5078842;28;19916;-84
2024/04/06 09:19:01;;;;;;;;;;;47.20;99.90;;;;;;5077673;28;19916;-85
2024/04/06 09:21:30;;;;;;;;;;;45.90;99.90;;;;;;5079869;28;19931;-83
2024/04/06 09:23:56;;;;;;;;;;;44.60;99.90;;;;;;5080649;28;19915;-84
2024/04/06 09:26:21;;;;;;;;;;;43.00;99.90;;;;;;5081025;28;19913;-84
2024/04/06 09:28:51;;;;;;;;;;;42.30;99.90;;;;;;5081006;28;19912;-83
2024/04/06 09:31:23;;;;;;;;;;;41.40;99.90;;;;;;5080666;28;19995;-83
2024/04/06 09:33:50;;;;;;;;;;;40.60;99.90;;;;;;5080718;28;19908;-83
2024/04/06 09:36:16;;;;;;;;;;;39.80;99.90;;;;;;5083195;28;19962;-83
2024/04/06 09:38:42;;;;;;;;;;;38.80;99.90;;;;;;5082947;28;19909;-84
2024/04/06 09:41:08;;;;;;;;;;;37.50;99.90;;;;;;5086517;28;19916;-84
2024/04/06 09:43:34;;;;;;;;;;;36.20;99.90;;;;;;5086342;28;19958;-85
2024/04/06 09:46:00;;;;;;;;;;;35.50;99.90;;;;;;5068215;28;19934;-85
2024/04/06 09:48:27;;;;;;;;;;;35.10;99.90;;;;;;5086036;28;19912;-83
2024/04/06 09:50:53;;;;;;;;;;;35.10;99.90;;;;;;5086297;28;19968;-84
2024/04/06 09:53:19;;;;;;;;;;;35.40;99.90;;;;;;5067591;28;19909;-84
2024/04/06 09:55:45;;;;;;;;;;;35.90;99.90;;;;;;5085325;28;19919;-85
2024/04/06 09:58:11;;;;;;;;;;;35.50;99.90;;;;;;5063703;28;19966;-83
2024/04/06 10:00:38;;;;;;;;;;;35.00;99.90;;;;;;5080513;28;19969;-84
2024/04/06 10:03:03;;;;;;;;;;;35.10;99.90;;;;;;5083971;28;20010;-85
2024/04/06 10:05:44;;;;;;;;;;;34.90;99.90;;;;;;5086103;28;20410;-85
2024/04/06 10:08:11;;;;;;;;;;;34.40;99.90;;;;;;5086185;28;19916;-83
2024/04/06 10:10:43;;;;;;;;;;;34.60;99.90;;;;;;5086569;28;19973;-84
2024/04/06 10:13:09;;;;;;;;;;;35.40;99.90;;;;;;5084340;28;19936;-84
2024/04/06 10:15:35;;;;;;;;;;;36.60;99.90;;;;;;5082719;28;19908;-83
2024/04/06 10:18:00;;;;;;;;;;;37.80;99.90;;;;;;5078441;28;20325;-84
2024/04/06 10:20:27;;;;;;;;;;;38.70;99.90;;;;;;5074973;28;19995;-83
2024/04/06 10:22:54;;;;;;;;;;;39.40;99.90;;;;;;5076474;28;19999;-83
2024/04/06 10:25:26;;;;;;;;;;;40.30;99.90;;;;;;5075173;28;20329;-83
2024/04/06 10:28:24;;;;;;;;;;;40.90;99.90;;;;;;5074267;28;19919;-84
2024/04/06 10:30:49;;;;;;;;;;;41.30;99.90;;;;;;5055378;28;19918;-84
2024/04/06 10:33:15;;;;;;;;;;;42.10;99.90;;;;;;5076949;28;19943;-84
2024/04/06 10:35:40;;;;;;;;;;;42.50;99.90;;;;;;5074923;28;19912;-85
2024/04/06 10:38:06;;;;;;;;;;;42.70;99.90;;;;;;5058010;28;19908;-83
2024/04/06 10:40:34;;;;;;;;;;;42.70;99.90;;;;;;5080377;28;19931;-84
2024/04/06 10:43:00;;;;;;;;;;;42.70;99.90;;;;;;5080977;28;19908;-84
2024/04/06 10:45:25;;;;;;;;;;;42.20;99.90;;;;;;5080732;28;20324;-84
2024/04/06 10:47:51;;;;;;;;;;;41.60;99.90;;;;;;5082468;28;19972;-87
2024/04/06 10:50:16;;;;;;;;;;;41.60;99.90;;;;;;5086123;28;19915;-83
2024/04/06 10:52:42;;;;;;;;;;;41.40;99.90;;;;;;5085829;28;19908;-84
2024/04/06 10:55:15;;;;;;;;;;;40.80;99.90;;;;;;5086456;28;20287;-84
2024/04/06 10:57:44;;;;;;;;;;;40.10;99.90;;;;;;5084780;28;19916;-84
2024/04/06 11:00:10;;;;;;;;;;;39.20;99.90;;;;;;5083003;28;20451;-83
2024/04/06 11:02:39;;;;;;;;;;;38.70;99.90;;;;;;5087834;28;19919;-82
2024/04/06 11:05:09;;;;;;;;;;;38.90;99.90;;;;;;5087109;28;19966;-85
2024/04/06 11:07:34;;;;;;;;;;;39.00;99.90;;;;;;5085908;28;19961;-84
2024/04/06 11:10:00;;;;;;;;;;;39.20;99.90;;;;;;5086392;28;19966;-83
2024/04/06 11:12:26;;;;;;;;;;;39.50;99.90;;;;;;5067989;28;20374;-84
2024/04/06 11:14:51;;;;;;;;;;;39.90;99.90;;;;;;5069039;28;19908;-83
2024/04/06 11:17:18;;;;;;;;;;;39.90;99.90;;;;;;5085842;28;19908;-84
2024/04/06 11:19:43;;;;;;;;;;;39.70;99.90;;;;;;5085624;28;19908;-83
2024/04/06 11:22:09;;;;;;;;;;;39.20;99.90;;;;;;5086737;28;19908;-84
2024/04/06 11:24:34;;;;;;;;;;;38.80;99.90;;;;;;5087366;28;19908;-83
2024/04/06 11:27:07;;;;;;;;;;;38.40;99.90;;;;;;5087666;28;19917;-84
2024/04/06 11:29:33;;;;;;;;;;;38.10;99.90;;;;;;5079069;28;20011;-83
2024/04/06 11:31:58;;;;;;;;;;;37.90;99.90;;;;;;5087161;28;19916;-83
2024/04/06 11:34:24;;;;;;;;;;;37.70;99.90;;;;;;5069840;28;19912;-84
2024/04/06 11:36:49;;;;;;;;;;;37.60;99.90;;;;;;5087757;28;19908;-84
2024/04/06 11:39:15;;;;;;;;;;;37.30;99.90;;;;;;5087256;28;19940;-83
2024/04/06 11:41:40;;;;;;;;;;;37.10;99.90;;;;;;5087915;28;19913;-84
2024/04/06 11:44:06;;;;;;;;;;;36.70;99.90;;;;;;5084466;28;19914;-82
2024/04/06 11:46:32;;;;;;;;;;;36.40;99.90;;;;;;5085656;28;19940;-83
2024/04/06 11:48:58;;;;;;;;;;;36.50;99.90;;;;;;5086300;28;19913;-83
2024/04/06 11:51:23;;;;;;;;;;;36.60;99.90;;;;;;5086122;28;19934;-83
2024/04/06 11:53:49;;;;;;;;;;;36.50;99.90;;;;;;5086744;28;19919;-84
2024/04/06 11:56:17;;;;;;;;;;;36.60;99.90;;;;;;5103108;22;19979;-82
2024/04/06 11:58:42;;;;;;;;;;;36.80;99.90;;;;;;5072380;28;20488;-83
2024/04/06 12:01:08;;;;;;;;;;;36.90;99.90;;;;;;5073877;28;19948;-84
2024/04/06 12:03:33;;;;;;;;;;;37.10;99.90;;;;;;5042816;28;20071;-84
2024/04/06 12:05:59;;;;;;;;;;;37.20;99.90;;;;;;5061513;28;20363;-84
2024/04/06 12:08:24;;;;;;;;;;;37.20;99.90;;;;;;5060438;28;19920;-85
2024/04/06 12:10:50;;;;;;;;;;;37.40;99.90;;;;;;5059990;28;20067;-85
2024/04/06 12:13:15;;;;;;;;;;;37.40;99.90;;;;;;5060302;28;19962;-83
2024/04/06 12:15:41;;;;;;;;;;;37.30;99.90;;;;;;5059539;28;19920;-84
2024/04/06 12:18:08;;;;;;;;;;;37.20;99.90;;;;;;5041645;28;19931;-84
2024/04/06 12:20:34;;;;;;;;;;;37.00;99.90;;;;;;5059624;28;19935;-82
2024/04/06 12:22:59;;;;;;;;;;;36.60;99.90;;;;;;5042105;28;19909;-84
2024/04/06 12:25:25;;;;;;;;;;;36.50;99.90;;;;;;5060893;28;19908;-84
2024/04/06 12:27:51;;;;;;;;;;;36.20;99.90;;;;;;5063055;28;19913;-83
2024/04/06 12:30:16;;;;;;;;;;;36.10;99.90;;;;;;5079217;28;19916;-86
2024/04/06 12:32:43;;;;;;;;;;;35.90;99.90;;;;;;5062332;28;19908;-83
2024/04/06 12:35:08;;;;;;;;;;;35.80;99.90;;;;;;5079627;28;19908;-85
2024/04/06 12:37:34;;;;;;;;;;;35.60;99.90;;;;;;5062267;28;19924;-84
2024/04/06 12:39:59;;;;;;;;;;;35.70;99.90;;;;;;5079976;28;19909;-84
2024/04/06 12:42:25;;;;;;;;;;;35.70;99.90;;;;;;5078378;28;19948;-85
2024/04/06 12:44:50;;;;;;;;;;;35.50;99.90;;;;;;5077589;28;20259;-83
2024/04/06 12:47:16;;;;;;;;;;;35.10;99.90;;;;;;5077396;28;19909;-84
2024/04/06 12:49:41;;;;;;;;;;;34.60;99.90;;;;;;5077162;28;19934;-84
2024/04/06 12:52:07;;;;;;;;;;;34.20;99.90;;;;;;5078660;28;20357;-84
2024/04/06 12:54:32;;;;;;;;;;;34.00;99.90;;;;;;5078409;28;19915;-85
2024/04/06 12:59:42;;;;;;;;;;;33.60;99.90;;;;;;5079744;28;20016;-86
2024/04/06 13:02:07;;;;;;;;;;;33.30;99.90;;;;;;5061851;28;19972;-84
2024/04/06 13:04:33;;;;;;;;;;;33.10;99.90;;;;;;5078801;28;20370;-83
2024/04/06 13:06:59;;;;;;;;;;;32.90;99.90;;;;;;5079109;28;19992;-84
2024/04/06 13:09:24;;;;;;;;;;;32.70;99.90;;;;;;5059092;28;19919;-83
2024/04/06 13:11:50;;;;;;;;;;;32.60;99.90;;;;;;5074990;28;19908;-84
2024/04/06 13:14:15;;;;;;;;;;;32.60;99.90;;;;;;5075625;28;19909;-84
2024/04/06 13:16:41;;;;;;;;;;;32.60;99.90;;;;;;5075417;28;19936;-84
2024/04/06 13:19:07;;;;;;;;;;;32.60;99.90;;;;;;5075234;28;20381;-84
2024/04/06 13:21:33;;;;;;;;;;;32.70;99.90;;;;;;5074709;28;19915;-82
2024/04/06 13:23:58;;;;;;;;;;;32.70;99.90;;;;;;5075109;28;19908;-84
2024/04/06 13:26:24;;;;;;;;;;;32.50;99.90;;;;;;5078434;28;20355;-83
2024/04/06 13:28:49;;;;;;;;;;;32.40;99.90;;;;;;5070807;28;19925;-85
2024/04/06 13:31:15;;;;;;;;;;;32.40;99.90;;;;;;5078058;28;19944;-84
2024/04/06 13:33:40;;;;;;;;;;;32.60;99.90;;;;;;5079212;28;19936;-83
2024/04/06 13:36:06;;;;;;;;;;;32.50;99.90;;;;;;5078076;28;19935;-85
2024/04/06 13:38:32;;;;;;;;;;;32.60;99.90;;;;;;5078863;28;19944;-85
2024/04/06 13:40:57;;;;;;;;;;;32.70;99.90;;;;;;5059715;28;19970;-84
2024/04/06 13:43:23;;;;;;;;;;;32.90;99.90;;;;;;5078505;28;20333;-85
2024/04/06 13:45:49;;;;;;;;;;;33.20;99.90;;;;;;5077584;28;19932;-83
2024/04/06 13:48:14;;;;;;;;;;;33.60;99.90;;;;;;5077573;28;19971;-84
2024/04/06 13:50:40;;;;;;;;;;;33.90;99.90;;;;;;5060953;28;19982;-82
2024/04/06 13:53:06;;;;;;;;;;;34.00;99.90;;;;;;5077929;28;19916;-85
2024/04/06 13:55:32;;;;;;;;;;;34.00;99.90;;;;;;5060242;28;20007;-84
2024/04/06 13:57:58;;;;;;;;;;;34.00;99.90;;;;;;5078110;28;19943;-84
2024/04/06 14:00:24;;;;;;;;;;;34.00;99.90;;;;;;5077535;28;19916;-84
2024/04/06 14:02:50;;;;;;;;;;;34.00;99.90;;;;;;5077565;28;19908;-85
2024/04/06 14:05:15;;;;;;;;;;;33.90;99.90;;;;;;5060469;28;19915;-85
2024/04/06 14:07:41;;;;;;;;;;;33.80;99.90;;;;;;5078268;28;19931;-85
2024/04/06 14:10:07;;;;;;;;;;;33.60;99.90;;;;;;5059876;28;19972;-84
2024/04/06 14:12:33;;;;;;;;;;;33.50;99.90;;;;;;5078947;28;19909;-85
2024/04/06 14:14:58;;;;;;;;;;;33.40;99.90;;;;;;5079617;28;19909;-85
2024/04/06 14:17:24;;;;;;;;;;;33.30;99.90;;;;;;5080018;28;19954;-84